Time;durP1;ratioP1;P1;durP2;ratioP2;P2;SDS_P1;SDS_P2;PMS_P1;PMS_P2;Temp;Humidity;BMP_temperature;BMP_pressure;BME280_temperature;BME280_humidity;BME280_pressure;Samples;Min_cycle;Max_cycle;Signal;HPM_P1;HPM_P2
2023/09/05 00:02:01;;;;;;;6.82;4.18;;;13.10;93.50;;;;;;5001146;28;20062;-87
2023/09/05 00:04:29;;;;;;;15.85;4.63;;;13.10;94.00;;;;;;4988163;28;20066;-87
2023/09/05 00:06:56;;;;;;;7.40;4.00;;;13.10;94.00;;;;;;5003471;28;20050;-88
2023/09/05 00:09:23;;;;;;;6.95;4.70;;;13.10;94.00;;;;;;4987860;28;20058;-87
2023/09/05 00:11:50;;;;;;;9.88;4.35;;;13.10;93.70;;;;;;4992423;28;20045;-87
2023/09/05 00:14:18;;;;;;;6.72;4.63;;;13.00;93.70;;;;;;4989962;28;20089;-87
2023/09/05 00:16:45;;;;;;;7.68;4.88;;;13.00;93.70;;;;;;5005248;28;20049;-87
2023/09/05 00:19:12;;;;;;;10.05;4.82;;;13.00;93.30;;;;;;4991055;28;20538;-88
2023/09/05 00:21:39;;;;;;;9.35;4.78;;;12.90;93.60;;;;;;4995822;28;20093;-87
2023/09/05 00:24:32;;;;;;;7.10;3.83;;;12.90;93.40;;;;;;5005859;28;20049;-87
2023/09/05 00:27:01;;;;;;;7.65;4.00;;;12.90;93.20;;;;;;4983136;28;20057;-87
2023/09/05 00:29:29;;;;;;;5.68;3.78;;;12.90;93.30;;;;;;4988067;28;20525;-87
2023/09/05 00:32:00;;;;;;;7.85;4.18;;;12.90;93.40;;;;;;4984940;28;20142;-87
2023/09/05 00:34:29;;;;;;;6.15;4.38;;;12.80;93.70;;;;;;5010162;28;20880;-87
2023/09/05 00:36:58;;;;;;;5.97;4.18;;;12.80;93.60;;;;;;5001195;28;20050;-87
2023/09/05 00:39:26;;;;;;;7.70;4.30;;;12.80;94.00;;;;;;4982686;28;20459;-87
2023/09/05 00:41:54;;;;;;;8.57;4.47;;;12.80;93.60;;;;;;4991975;28;20053;-87
2023/09/05 00:44:25;;;;;;;5.22;3.75;;;12.80;93.40;;;;;;4987071;28;20054;-86
2023/09/05 00:46:54;;;;;;;6.32;4.13;;;12.80;93.90;;;;;;4996857;28;20046;-87
2023/09/05 00:49:28;;;;;;;7.50;4.57;;;12.80;93.80;;;;;;4989913;28;20104;-87
2023/09/05 00:51:57;;;;;;;6.95;3.80;;;12.80;93.90;;;;;;5002533;28;20049;-87
2023/09/05 00:54:25;;;;;;;6.78;3.95;;;12.70;93.90;;;;;;5018369;28;20127;-87
2023/09/05 00:56:53;;;;;;;7.25;4.82;;;12.80;94.10;;;;;;4986293;28;20135;-87
2023/09/05 00:59:22;;;;;;;8.52;4.50;;;12.70;94.30;;;;;;4987858;28;20081;-86
2023/09/05 01:01:49;;;;;;;9.40;4.82;;;12.70;94.00;;;;;;4991826;28;20550;-87
2023/09/05 01:04:17;;;;;;;5.68;4.18;;;12.70;93.90;;;;;;4998682;28;20056;-87
2023/09/05 01:07:08;;;;;;;7.07;4.65;;;12.60;93.80;;;;;;5013077;28;20046;-87
2023/09/05 01:09:59;;;;;;;6.05;4.32;;;12.60;94.10;;;;;;4995695;28;20148;-86
2023/09/05 01:12:27;;;;;;;7.53;4.65;;;12.50;94.60;;;;;;4982775;28;20058;-87
2023/09/05 01:14:54;;;;;;;10.07;5.20;;;12.50;94.60;;;;;;4999422;28;20120;-87
2023/09/05 01:17:21;;;;;;;5.80;4.10;;;12.50;95.10;;;;;;4989138;28;20124;-87
2023/09/05 01:19:53;;;;;;;8.00;4.57;;;12.40;95.70;;;;;;4998317;28;20129;-86
2023/09/05 01:22:44;;;;;;;7.50;4.70;;;12.40;95.60;;;;;;4991875;28;20457;-87
2023/09/05 01:25:12;;;;;;;6.50;4.40;;;12.40;95.60;;;;;;4988189;28;20044;-87
2023/09/05 01:27:39;;;;;;;8.68;5.15;;;12.40;95.80;;;;;;4991751;28;20096;-87
2023/09/05 01:30:09;;;;;;;6.68;4.68;;;12.40;96.20;;;;;;5009532;28;20484;-88
2023/09/05 01:32:37;;;;;;;8.43;4.60;;;12.40;96.10;;;;;;4983593;28;20053;-87
2023/09/05 01:35:05;;;;;;;6.60;4.22;;;12.30;95.80;;;;;;5008705;28;20068;-87
2023/09/05 01:37:32;;;;;;;6.43;3.97;;;12.40;95.30;;;;;;4997676;28;20080;-87
2023/09/05 01:39:59;;;;;;;8.68;4.68;;;12.40;95.30;;;;;;5030282;28;20054;-87
2023/09/05 01:42:25;;;;;;;7.03;4.82;;;12.40;94.90;;;;;;5008980;28;20026;-87
2023/09/05 01:44:52;;;;;;;5.35;3.90;;;12.30;94.90;;;;;;4992660;28;20487;-86
2023/09/05 01:47:19;;;;;;;4.97;3.58;;;12.30;94.90;;;;;;4981740;28;20491;-86
2023/09/05 01:49:46;;;;;;;5.68;3.88;;;12.30;94.90;;;;;;4982406;28;20157;-87
2023/09/05 01:52:13;;;;;;;10.15;4.68;;;12.30;95.20;;;;;;4987719;28;20058;-86
2023/09/05 01:54:41;;;;;;;8.48;4.68;;;12.20;95.40;;;;;;4988479;28;21126;-87
2023/09/05 01:57:08;;;;;;;9.90;4.15;;;12.30;95.50;;;;;;4987666;28;20112;-87
2023/09/05 01:59:34;;;;;;;8.55;4.72;;;12.20;95.30;;;;;;5001463;28;20085;-87
2023/09/05 02:02:01;;;;;;;6.20;4.07;;;12.20;95.40;;;;;;4993372;28;20682;-87
2023/09/05 02:04:29;;;;;;;6.25;4.05;;;12.20;95.20;;;;;;4990955;28;20038;-87
2023/09/05 02:06:56;;;;;;;9.23;4.43;;;12.20;95.20;;;;;;4999181;28;20054;-86
2023/09/05 02:09:23;;;;;;;8.15;4.30;;;12.20;95.30;;;;;;4982890;28;20085;-87
2023/09/05 02:11:49;;;;;;;8.20;4.18;;;12.10;95.00;;;;;;4987850;28;20142;-87
2023/09/05 02:14:16;;;;;;;8.10;4.05;;;12.10;95.10;;;;;;4988387;28;20053;-87
2023/09/05 02:16:43;;;;;;;7.22;4.20;;;12.10;94.90;;;;;;4991120;28;20136;-88
2023/09/05 02:19:10;;;;;;;7.95;4.75;;;12.10;95.00;;;;;;5010143;28;20696;-87
2023/09/05 02:21:37;;;;;;;6.55;4.07;;;12.10;94.90;;;;;;4991156;28;20050;-88
2023/09/05 02:24:04;;;;;;;5.38;3.85;;;12.00;94.80;;;;;;5002415;28;20074;-88
2023/09/05 02:26:31;;;;;;;7.28;4.20;;;12.00;94.80;;;;;;5012054;28;20045;-88
2023/09/05 02:28:58;;;;;;;8.23;4.03;;;12.00;94.70;;;;;;4996361;28;20136;-87
2023/09/05 02:31:25;;;;;;;7.22;4.03;;;12.00;94.90;;;;;;4988706;28;20526;-88
2023/09/05 02:33:52;;;;;;;11.50;4.28;;;12.00;95.00;;;;;;5006909;28;20050;-87
2023/09/05 02:36:20;;;;;;;5.97;3.92;;;11.90;95.00;;;;;;4992110;28;20054;-88
2023/09/05 02:38:47;;;;;;;10.32;3.90;;;11.90;94.60;;;;;;4982370;28;20062;-88
2023/09/05 02:41:16;;;;;;;6.80;3.90;;;11.90;94.50;;;;;;4990349;28;20060;-87
2023/09/05 02:43:44;;;;;;;5.93;3.80;;;11.80;94.60;;;;;;4984058;28;20041;-87
2023/09/05 02:46:11;;;;;;;6.18;3.90;;;11.90;94.80;;;;;;4978537;28;20149;-87
2023/09/05 02:48:42;;;;;;;7.45;4.13;;;11.80;94.60;;;;;;4988519;28;20054;-87
2023/09/05 02:51:11;;;;;;;7.95;3.85;;;11.80;95.10;;;;;;4991993;28;20108;-88
2023/09/05 02:53:38;;;;;;;8.93;4.03;;;11.80;95.20;;;;;;4987153;28;20072;-87
2023/09/05 02:56:05;;;;;;;6.40;3.90;;;11.70;95.10;;;;;;4998560;28;20054;-87
2023/09/05 02:58:33;;;;;;;6.80;4.15;;;11.70;95.20;;;;;;4986840;28;20054;-87
2023/09/05 03:01:02;;;;;;;10.82;4.85;;;11.70;95.80;;;;;;4988085;28;20570;-88
2023/09/05 03:03:29;;;;;;;6.18;4.53;;;11.70;95.70;;;;;;4992161;28;20050;-87
2023/09/05 03:05:56;;;;;;;6.68;4.65;;;11.70;96.00;;;;;;4998022;28;20100;-87
2023/09/05 03:08:24;;;;;;;9.48;5.50;;;11.70;96.00;;;;;;4993232;28;20068;-87
2023/09/05 03:10:52;;;;;;;6.80;4.95;;;11.70;96.00;;;;;;4986202;28;20053;-87
2023/09/05 03:13:20;;;;;;;9.50;5.20;;;11.70;95.80;;;;;;4992689;28;20062;-88
2023/09/05 03:15:52;;;;;;;11.48;5.28;;;11.70;96.00;;;;;;4994142;28;20104;-88
2023/09/05 03:18:19;;;;;;;9.88;4.97;;;11.60;96.10;;;;;;4992558;28;20054;-87
2023/09/05 03:20:46;;;;;;;11.18;5.35;;;11.60;96.40;;;;;;4988768;28;20096;-87
2023/09/05 03:23:14;;;;;;;11.05;4.97;;;11.60;96.40;;;;;;5012682;28;20049;-87
2023/09/05 03:25:41;;;;;;;14.68;6.00;;;11.60;96.70;;;;;;4985027;28;20065;-87
2023/09/05 03:28:12;;;;;;;12.13;6.50;;;11.60;96.70;;;;;;4993887;28;20119;-87
2023/09/05 03:30:40;;;;;;;11.30;6.20;;;11.60;96.80;;;;;;4992776;28;20559;-86
2023/09/05 03:33:08;;;;;;;10.32;5.60;;;11.60;97.10;;;;;;4990671;28;20054;-87
2023/09/05 03:35:35;;;;;;;14.82;5.68;;;11.60;97.20;;;;;;4992238;28;20085;-87
2023/09/05 03:38:02;;;;;;;11.32;5.68;;;11.60;97.10;;;;;;4991938;28;20054;-87
2023/09/05 03:40:30;;;;;;;11.45;5.72;;;11.50;97.10;;;;;;4987151;28;20054;-87
2023/09/05 03:42:57;;;;;;;14.27;5.63;;;11.50;97.40;;;;;;4992619;28;20034;-87
2023/09/05 03:45:24;;;;;;;14.35;5.93;;;11.50;97.40;;;;;;4992108;28;20064;-86
2023/09/05 03:47:51;;;;;;;14.25;6.20;;;11.50;97.70;;;;;;5010154;28;20064;-86
2023/09/05 03:50:27;;;;;;;10.32;6.18;;;11.50;97.50;;;;;;5004313;28;20550;-87
2023/09/05 03:52:54;;;;;;;11.30;6.28;;;11.50;97.80;;;;;;4984795;28;20061;-87
2023/09/05 03:55:21;;;;;;;15.60;6.43;;;11.50;98.00;;;;;;4978088;28;20149;-87
2023/09/05 03:57:48;;;;;;;9.48;6.03;;;11.50;97.80;;;;;;4990433;28;20108;-87
2023/09/05 04:00:15;;;;;;;14.27;5.80;;;11.50;97.80;;;;;;5004728;28;20053;-86
2023/09/05 04:02:42;;;;;;;9.32;5.40;;;11.50;97.50;;;;;;4994395;28;20057;-88
2023/09/05 04:05:10;;;;;;;10.95;5.75;;;11.50;98.00;;;;;;4982254;28;20062;-88
2023/09/05 04:07:38;;;;;;;10.38;5.35;;;11.50;97.50;;;;;;4987873;28;20057;-88
2023/09/05 04:10:08;;;;;;;9.80;5.10;;;11.40;97.40;;;;;;4988631;28;20054;-88
2023/09/05 04:12:37;;;;;;;7.55;5.28;;;11.40;97.40;;;;;;5002636;28;20045;-87
2023/09/05 04:15:05;;;;;;;8.30;6.22;;;11.40;97.30;;;;;;5021935;28;20057;-88
2023/09/05 04:17:32;;;;;;;7.63;5.18;;;11.40;97.40;;;;;;5007961;28;20057;-87
2023/09/05 04:19:59;;;;;;;10.63;5.70;;;11.30;97.50;;;;;;4991626;28;20057;-88
2023/09/05 04:22:29;;;;;;;10.23;5.45;;;11.30;97.80;;;;;;4997504;28;20105;-86
2023/09/05 04:24:56;;;;;;;9.05;5.60;;;11.30;97.70;;;;;;4988227;28;20132;-87
2023/09/05 04:27:23;;;;;;;16.20;6.05;;;11.40;98.10;;;;;;4985793;28;20042;-87
2023/09/05 04:29:54;;;;;;;11.73;5.25;;;11.40;97.90;;;;;;4986121;28;20061;-88
2023/09/05 04:32:28;;;;;;;7.07;4.88;;;11.40;97.70;;;;;;5005231;28;20138;-87
2023/09/05 04:34:57;;;;;;;11.87;5.43;;;11.40;97.20;;;;;;4992539;28;20619;-87
2023/09/05 04:37:25;;;;;;;9.20;4.25;;;11.30;97.10;;;;;;4982431;28;20474;-88
2023/09/05 04:39:52;;;;;;;7.40;4.72;;;11.30;97.00;;;;;;4988558;28;20062;-88
2023/09/05 04:42:20;;;;;;;8.30;4.97;;;11.30;96.90;;;;;;4986445;28;20073;-87
2023/09/05 04:44:47;;;;;;;9.35;4.35;;;11.30;97.20;;;;;;5004272;28;20048;-87
2023/09/05 04:47:23;;;;;;;6.00;4.10;;;11.30;97.20;;;;;;4988174;28;20046;-87
2023/09/05 04:49:59;;;;;;;6.85;4.25;;;11.30;97.00;;;;;;4978456;28;20054;-88
2023/09/05 04:52:29;;;;;;;6.68;4.53;;;11.30;97.00;;;;;;5005219;28;20050;-86
2023/09/05 04:54:57;;;;;;;10.02;5.10;;;11.30;97.10;;;;;;5005961;28;20049;-86
2023/09/05 04:57:25;;;;;;;6.57;4.25;;;11.30;97.00;;;;;;5008475;28;20454;-84
2023/09/05 04:59:59;;;;;;;8.35;4.30;;;11.30;96.70;;;;;;4989747;28;20050;-85
2023/09/05 05:02:27;;;;;;;7.40;4.35;;;11.30;97.00;;;;;;4978646;28;20050;-85
2023/09/05 05:04:55;;;;;;;12.60;5.60;;;11.40;97.10;;;;;;4981584;28;20054;-85
2023/09/05 05:07:22;;;;;;;7.95;4.35;;;11.40;97.20;;;;;;4988915;28;20070;-86
2023/09/05 05:09:51;;;;;;;5.72;3.80;;;11.40;97.10;;;;;;4986550;28;20073;-85
2023/09/05 05:12:18;;;;;;;7.82;4.18;;;11.50;96.90;;;;;;4989022;28;20060;-85
2023/09/05 05:14:45;;;;;;;11.50;4.00;;;11.50;97.10;;;;;;4990140;28;20153;-84
2023/09/05 05:17:12;;;;;;;8.90;4.05;;;11.50;97.30;;;;;;5000788;28;20054;-86
2023/09/05 05:19:40;;;;;;;7.82;4.28;;;11.50;97.40;;;;;;4992860;28;20527;-86
2023/09/05 05:22:07;;;;;;;8.85;3.83;;;11.60;97.60;;;;;;4995806;28;20058;-86
2023/09/05 05:24:34;;;;;;;12.18;4.15;;;11.60;97.50;;;;;;4987737;28;20152;-87
2023/09/05 05:27:01;;;;;;;10.52;4.28;;;11.70;97.40;;;;;;4994540;28;20119;-86
2023/09/05 05:29:32;;;;;;;26.58;5.13;;;11.80;97.60;;;;;;4985631;28;20053;-86
2023/09/05 05:32:02;;;;;;;11.98;5.20;;;11.90;97.60;;;;;;4990059;28;20179;-86
2023/09/05 05:34:30;;;;;;;9.68;5.28;;;11.90;97.50;;;;;;4984814;28;20761;-85
2023/09/05 05:36:57;;;;;;;9.50;5.45;;;12.00;97.60;;;;;;4981229;28;20058;-86
2023/09/05 05:39:25;;;;;;;13.18;5.65;;;12.10;97.70;;;;;;4982719;28;20147;-84
2023/09/05 05:41:52;;;;;;;12.77;5.82;;;12.20;97.90;;;;;;5006100;28;20485;-86
2023/09/05 05:44:19;;;;;;;13.57;6.35;;;12.20;98.40;;;;;;4988348;28;20054;-85
2023/09/05 05:46:46;;;;;;;12.02;5.78;;;12.30;98.50;;;;;;4978857;28;20621;-86
2023/09/05 05:49:13;;;;;;;11.02;6.47;;;12.40;98.70;;;;;;4986152;28;20045;-86
2023/09/05 05:51:40;;;;;;;9.30;6.13;;;12.50;98.80;;;;;;5008912;28;20153;-86
2023/09/05 05:54:07;;;;;;;11.40;6.50;;;12.50;99.00;;;;;;4994071;28;20082;-86
2023/09/05 05:56:34;;;;;;;12.02;6.13;;;12.60;98.90;;;;;;5006961;28;20069;-86
2023/09/05 05:59:02;;;;;;;15.18;6.43;;;12.80;98.80;;;;;;4991252;28;20064;-86
2023/09/05 06:01:29;;;;;;;15.95;7.72;;;12.90;98.90;;;;;;4984560;28;20487;-86
2023/09/05 06:03:56;;;;;;;14.68;8.18;;;13.10;99.00;;;;;;4991814;28;20042;-86
2023/09/05 06:06:23;;;;;;;12.70;7.28;;;13.30;98.80;;;;;;4983719;28;20046;-86
2023/09/05 06:08:50;;;;;;;14.73;7.95;;;13.40;98.50;;;;;;4984293;28;20057;-86
2023/09/05 06:11:16;;;;;;;13.32;8.05;;;13.60;98.40;;;;;;4979372;28;20057;-87
2023/09/05 06:13:43;;;;;;;13.80;7.85;;;13.80;98.30;;;;;;4992097;28;20050;-86
2023/09/05 06:16:10;;;;;;;16.42;6.85;;;14.00;98.30;;;;;;4996839;28;20062;-86
2023/09/05 06:18:37;;;;;;;16.42;7.75;;;14.10;98.30;;;;;;4988870;28;20062;-86
2023/09/05 06:21:06;;;;;;;12.52;6.90;;;14.40;98.50;;;;;;4985421;28;20054;-86
2023/09/05 06:23:35;;;;;;;17.40;8.43;;;14.80;98.60;;;;;;4973244;28;20042;-86
2023/09/05 06:26:02;;;;;;;19.50;6.82;;;15.40;98.10;;;;;;4987102;28;20057;-86
2023/09/05 06:28:29;;;;;;;18.75;6.78;;;16.20;95.40;;;;;;5009189;28;20050;-87
2023/09/05 06:30:57;;;;;;;11.45;5.75;;;16.90;91.90;;;;;;5009923;28;20153;-86
2023/09/05 06:33:26;;;;;;;12.15;5.68;;;17.60;88.80;;;;;;4992299;28;20057;-86
2023/09/05 06:35:53;;;;;;;9.65;5.35;;;18.30;86.30;;;;;;4996414;28;20766;-86
2023/09/05 06:38:22;;;;;;;12.18;5.47;;;18.90;84.10;;;;;;4995400;28;20092;-85
2023/09/05 06:40:50;;;;;;;9.23;4.90;;;19.40;82.50;;;;;;4992458;28;20053;-86
2023/09/05 06:43:17;;;;;;;9.13;4.40;;;19.90;79.80;;;;;;4990930;28;20454;-85
2023/09/05 06:45:44;;;;;;;7.97;4.63;;;20.40;77.80;;;;;;5007585;28;20574;-85
2023/09/05 06:48:11;;;;;;;8.70;4.28;;;21.10;75.50;;;;;;5000991;28;20054;-85
2023/09/05 06:50:38;;;;;;;9.50;4.45;;;21.40;74.00;;;;;;5005386;28;20060;-86
2023/09/05 06:53:05;;;;;;;13.68;4.28;;;21.80;73.50;;;;;;4999424;28;20343;-86
2023/09/05 06:55:34;;;;;;;5.20;4.10;;;22.00;72.00;;;;;;5007771;28;20049;-86
2023/09/05 06:58:01;;;;;;;8.07;4.20;;;22.20;71.50;;;;;;4987401;28;20136;-85
2023/09/05 07:00:29;;;;;;;13.23;5.00;;;22.50;70.30;;;;;;4982888;28;20173;-86
2023/09/05 07:02:56;;;;;;;10.85;5.07;;;23.00;69.40;;;;;;4987611;28;20104;-86
2023/09/05 07:05:24;;;;;;;11.88;4.70;;;23.40;67.80;;;;;;5008856;28;20046;-86
2023/09/05 07:07:51;;;;;;;7.88;4.20;;;23.80;67.80;;;;;;4983623;28;20069;-85
2023/09/05 07:10:21;;;;;;;8.82;4.20;;;24.10;66.80;;;;;;4994052;28;20056;-86
2023/09/05 07:12:48;;;;;;;6.00;4.07;;;24.20;66.30;;;;;;4988772;28;20498;-86
2023/09/05 07:15:15;;;;;;;7.70;3.40;;;24.40;66.20;;;;;;4986064;28;20809;-86
2023/09/05 07:17:42;;;;;;;5.90;3.90;;;24.60;64.70;;;;;;4993370;28;20112;-86
2023/09/05 07:20:10;;;;;;;5.43;3.92;;;24.60;64.70;;;;;;5005390;28;20108;-86
2023/09/05 07:22:37;;;;;;;7.97;3.80;;;24.60;65.30;;;;;;4995361;28;20486;-86
2023/09/05 07:25:05;;;;;;;12.75;4.50;;;24.90;65.20;;;;;;5004571;28;20046;-86
2023/09/05 07:27:32;;;;;;;9.75;4.18;;;25.10;65.10;;;;;;4999788;28;20120;-86
2023/09/05 07:29:59;;;;;;;5.88;3.72;;;25.30;63.70;;;;;;4989064;28;20062;-86
2023/09/05 07:32:26;;;;;;;11.10;4.28;;;25.30;63.20;;;;;;4998464;28;20046;-86
2023/09/05 07:34:53;;;;;;;4.72;3.97;;;25.40;63.20;;;;;;5003711;28;20402;-86
2023/09/05 07:37:20;;;;;;;6.50;4.57;;;25.40;62.30;;;;;;4993218;28;20108;-87
2023/09/05 07:39:50;;;;;;;51.67;4.75;;;25.60;63.00;;;;;;4982785;28;20054;-87
2023/09/05 07:42:17;;;;;;;7.97;3.60;;;25.70;62.90;;;;;;4998675;28;20049;-86
2023/09/05 07:44:44;;;;;;;16.67;4.07;;;26.10;62.80;;;;;;4992851;28;20065;-86
2023/09/05 07:47:11;;;;;;;7.30;3.55;;;26.60;60.00;;;;;;5006315;28;20637;-87
2023/09/05 07:49:42;;;;;;;7.72;3.50;;;26.80;59.70;;;;;;4993543;28;20584;-86
2023/09/05 07:52:09;;;;;;;6.80;3.72;;;27.00;59.10;;;;;;5000233;28;20066;-87
2023/09/05 07:54:36;;;;;;;6.15;3.15;;;27.70;59.40;;;;;;4994564;28;20049;-87
2023/09/05 07:57:04;;;;;;;6.88;3.42;;;28.10;57.50;;;;;;5012033;28;20054;-86
2023/09/05 07:59:31;;;;;;;6.15;3.55;;;28.50;56.00;;;;;;4986532;28;20058;-87
2023/09/05 08:01:58;;;;;;;13.73;4.20;;;29.00;55.50;;;;;;5002332;28;20085;-87
2023/09/05 08:04:25;;;;;;;4.45;3.08;;;29.40;56.20;;;;;;5009503;28;20082;-87
2023/09/05 08:06:55;;;;;;;11.05;4.15;;;29.80;54.30;;;;;;4980753;28;20501;-86
2023/09/05 08:09:22;;;;;;;9.90;3.55;;;30.10;54.70;;;;;;4994951;28;20079;-87
2023/09/05 08:11:50;;;;;;;5.85;3.55;;;30.60;53.80;;;;;;4987934;28;20107;-86
2023/09/05 08:14:17;;;;;;;4.25;3.10;;;31.00;53.10;;;;;;4995755;28;20046;-86
2023/09/05 08:16:44;;;;;;;11.18;3.33;;;31.10;52.50;;;;;;5010655;28;20073;-86
2023/09/05 08:19:11;;;;;;;6.47;2.83;;;30.90;52.40;;;;;;4984242;28;20140;-84
2023/09/05 08:21:38;;;;;;;4.20;2.95;;;31.10;52.30;;;;;;5008023;28;20372;-86
2023/09/05 08:24:05;;;;;;;34.47;4.72;;;31.00;52.80;;;;;;4989529;28;20053;-87
2023/09/05 08:26:33;;;;;;;5.32;3.20;;;30.20;54.80;;;;;;4988705;28;20038;-86
2023/09/05 08:29:03;;;;;;;3.50;2.53;;;30.30;54.00;;;;;;4990732;28;20077;-87
2023/09/05 08:31:31;;;;;;;4.63;3.20;;;30.70;53.60;;;;;;4990965;28;20422;-87
2023/09/05 08:33:58;;;;;;;30.92;6.57;;;30.80;52.50;;;;;;4996642;28;20551;-86
2023/09/05 08:36:25;;;;;;;10.13;2.70;;;30.70;53.10;;;;;;4978298;28;20046;-86
2023/09/05 08:38:52;;;;;;;3.47;2.42;;;31.10;52.20;;;;;;4991918;28;20046;-87
2023/09/05 08:41:19;;;;;;;6.40;2.63;;;31.10;53.80;;;;;;5009434;28;20502;-86
2023/09/05 08:43:46;;;;;;;7.32;2.75;;;31.00;52.30;;;;;;4982106;28;20065;-84
2023/09/05 08:46:14;;;;;;;7.00;2.35;;;30.90;52.80;;;;;;5008933;28;20410;-84
2023/09/05 08:48:41;;;;;;;6.13;2.60;;;31.10;52.10;;;;;;4987852;28;20112;-83
2023/09/05 08:51:22;;;;;;;5.18;2.78;;;31.10;51.30;;;;;;4988581;28;20491;-84
2023/09/05 08:54:12;;;;;;;4.55;2.50;;;31.40;50.60;;;;;;5010692;28;20538;-84
2023/09/05 08:56:39;;;;;;;3.15;2.38;;;31.70;49.60;;;;;;5002522;28;20141;-84
2023/09/05 08:59:09;;;;;;;3.88;2.78;;;31.80;50.30;;;;;;4981023;28;20054;-84
2023/09/05 09:01:38;;;;;;;18.23;3.67;;;31.90;50.10;;;;;;5011248;28;20538;-84
2023/09/05 09:04:05;;;;;;;36.38;4.93;;;32.10;49.30;;;;;;4983327;28;20692;-85
2023/09/05 09:06:33;;;;;;;17.45;2.88;;;32.10;49.40;;;;;;4989945;28;20084;-84
2023/09/05 09:09:00;;;;;;;25.20;5.32;;;32.20;48.80;;;;;;4987267;28;20109;-85
2023/09/05 09:11:27;;;;;;;23.23;4.55;;;32.50;48.30;;;;;;4999587;28;20050;-84
2023/09/05 09:13:59;;;;;;;5.85;2.70;;;32.70;47.70;;;;;;4977501;28;20088;-84
2023/09/05 09:16:26;;;;;;;4.72;2.60;;;33.20;46.10;;;;;;4986929;28;20739;-87
2023/09/05 09:19:03;;;;;;;7.20;2.88;;;33.30;46.10;;;;;;4988561;28;20054;-86
2023/09/05 09:21:32;;;;;;;9.13;2.85;;;33.50;46.10;;;;;;4995253;28;20065;-84
2023/09/05 09:24:06;;;;;;;3.30;2.30;;;33.80;46.00;;;;;;5010582;28;20045;-85
2023/09/05 09:26:33;;;;;;;4.43;2.22;;;33.80;45.10;;;;;;4984784;28;20665;-84
2023/09/05 09:29:02;;;;;;;5.00;2.30;;;34.00;44.70;;;;;;4991718;28;20069;-84
2023/09/05 09:31:29;;;;;;;7.88;2.53;;;34.20;44.00;;;;;;4992684;28;20038;-84
2023/09/05 09:33:57;;;;;;;4.38;2.20;;;34.10;44.90;;;;;;5002314;28;20053;-85
2023/09/05 09:36:36;;;;;;;5.20;2.35;;;33.70;43.20;;;;;;5009344;28;20530;-85
2023/09/05 09:39:08;;;;;;;13.90;3.70;;;33.50;43.70;;;;;;4991006;28;20053;-84
2023/09/05 09:41:42;;;;;;;5.03;2.50;;;33.60;44.80;;;;;;4980613;28;20049;-84
2023/09/05 09:44:09;;;;;;;8.10;2.53;;;34.50;43.60;;;;;;4993064;28;20164;-84
2023/09/05 09:46:37;;;;;;;6.38;2.40;;;35.00;43.80;;;;;;4982469;28;20378;-85
2023/09/05 09:49:07;;;;;;;16.33;2.80;;;35.20;43.60;;;;;;4989965;28;20069;-85
2023/09/05 09:51:35;;;;;;;5.45;2.05;;;35.00;43.70;;;;;;4985326;28;20476;-84
2023/09/05 09:54:06;;;;;;;3.45;2.38;;;35.20;44.30;;;;;;5001445;28;20053;-85
2023/09/05 09:56:34;;;;;;;6.05;2.95;;;36.20;42.10;;;;;;4990832;28;20454;-85
2023/09/05 09:59:02;;;;;;;8.25;2.60;;;36.50;42.90;;;;;;4991089;28;20046;-84
2023/09/05 10:01:30;;;;;;;3.75;2.25;;;36.90;41.00;;;;;;4995095;28;20103;-84
2023/09/05 10:03:58;;;;;;;14.55;3.28;;;37.00;39.70;;;;;;4986068;28;20088;-85
2023/09/05 10:06:28;;;;;;;4.05;2.33;;;36.70;39.30;;;;;;5004245;28;20244;-84
2023/09/05 10:08:56;;;;;;;12.18;2.47;;;35.60;40.90;;;;;;5010512;28;20077;-84
2023/09/05 10:11:25;;;;;;;7.13;2.25;;;34.40;41.70;;;;;;4991995;28;20061;-84
2023/09/05 10:13:52;;;;;;;3.65;1.98;;;33.60;43.30;;;;;;4984625;28;20058;-84
2023/09/05 10:16:21;;;;;;;8.45;2.22;;;33.60;44.10;;;;;;4985315;28;20085;-84
2023/09/05 10:18:50;;;;;;;4.30;2.00;;;33.40;45.60;;;;;;4989537;28;20052;-84
2023/09/05 10:21:20;;;;;;;4.32;1.80;;;33.90;45.40;;;;;;5007586;28;20050;-84
2023/09/05 10:23:47;;;;;;;4.13;1.80;;;34.30;43.80;;;;;;4989206;28;20594;-84
2023/09/05 10:26:15;;;;;;;5.78;2.25;;;34.10;45.20;;;;;;4986384;28;20694;-84
2023/09/05 10:28:42;;;;;;;10.95;2.38;;;34.60;43.50;;;;;;4983697;28;20108;-85
2023/09/05 10:31:13;;;;;;;2.55;2.00;;;34.60;43.50;;;;;;5005233;28;20092;-85
2023/09/05 10:33:45;;;;;;;8.38;2.40;;;34.00;43.70;;;;;;4981734;28;20050;-84
2023/09/05 10:36:46;;;;;;;4.95;2.22;;;33.80;43.80;;;;;;4987016;28;20050;-84
2023/09/05 10:39:25;;;;;;;7.57;2.15;;;33.60;45.60;;;;;;5001758;28;20487;-84
2023/09/05 10:41:53;;;;;;;7.50;2.25;;;33.60;44.50;;;;;;4983818;28;20465;-85
2023/09/05 10:44:23;;;;;;;3.17;1.92;;;33.70;43.60;;;;;;5005975;28;20654;-84
2023/09/05 10:46:53;;;;;;;4.18;2.20;;;33.80;44.00;;;;;;4989495;28;20386;-84
2023/09/05 10:49:21;;;;;;;6.93;2.15;;;33.80;44.70;;;;;;5001180;28;20054;-84
2023/09/05 10:52:14;;;;;;;5.50;2.30;;;34.10;44.00;;;;;;4994139;28;20056;-86
2023/09/05 10:54:42;;;;;;;4.80;1.95;;;34.50;43.50;;;;;;4989017;28;20526;-84
2023/09/05 10:57:33;;;;;;;10.00;2.03;;;34.30;43.20;;;;;;4987510;28;20081;-84
2023/09/05 11:00:14;;;;;;;2.80;1.95;;;33.70;42.60;;;;;;4978905;28;20840;-84
2023/09/05 11:02:42;;;;;;;13.90;2.60;;;33.20;46.30;;;;;;4984308;28;20054;-84
2023/09/05 11:05:20;;;;;;;2.53;1.90;;;33.40;45.50;;;;;;4990024;28;20052;-87
2023/09/05 11:07:50;;;;;;;4.32;1.92;;;33.80;44.30;;;;;;4993179;28;20072;-86
2023/09/05 11:10:27;;;;;;;3.67;1.73;;;34.10;44.20;;;;;;4983007;28;20057;-86
2023/09/05 11:12:54;;;;;;;6.40;2.03;;;34.60;43.80;;;;;;4985118;28;20049;-87
2023/09/05 11:15:31;;;;;;;7.88;2.00;;;34.80;43.70;;;;;;4986753;28;20058;-87
2023/09/05 11:18:04;;;;;;;3.25;2.25;;;34.60;43.70;;;;;;5000088;28;20057;-86
2023/09/05 11:20:46;;;;;;;3.25;1.80;;;34.30;42.90;;;;;;5011776;28;20049;-86
2023/09/05 11:23:17;;;;;;;6.03;2.00;;;34.10;43.20;;;;;;4991253;28;20474;-87
2023/09/05 11:25:46;;;;;;;6.00;2.00;;;34.40;43.70;;;;;;4990208;28;20572;-85
2023/09/05 11:28:15;;;;;;;3.05;1.77;;;34.80;43.20;;;;;;4989103;28;20067;-87
2023/09/05 11:30:44;;;;;;;4.13;1.83;;;35.00;41.60;;;;;;5007685;28;20133;-86
2023/09/05 11:33:16;;;;;;;11.75;2.08;;;35.10;41.20;;;;;;4988689;28;20046;-86
2023/09/05 11:35:48;;;;;;;6.25;2.08;;;35.80;41.50;;;;;;4994047;28;20116;-86
2023/09/05 11:38:19;;;;;;;2.83;1.98;;;36.10;40.00;;;;;;4988786;28;20057;-86
2023/09/05 11:40:54;;;;;;;5.78;2.17;;;36.40;40.50;;;;;;4983712;28;20080;-86
2023/09/05 11:43:22;;;;;;;6.07;1.98;;;36.60;40.60;;;;;;4989256;28;20172;-86
2023/09/05 11:45:58;;;;;;;2.80;1.80;;;36.90;40.80;;;;;;4986071;28;20053;-87
2023/09/05 11:48:30;;;;;;;12.95;2.10;;;37.80;38.80;;;;;;4992370;28;20061;-87
2023/09/05 11:50:58;;;;;;;6.03;1.90;;;38.60;38.70;;;;;;4991289;28;20047;-87
2023/09/05 11:53:26;;;;;;;6.40;1.88;;;39.20;37.20;;;;;;4984473;28;20677;-86
2023/09/05 11:55:53;;;;;;;2.40;1.95;;;39.80;36.40;;;;;;5002386;28;20058;-87
2023/09/05 11:58:20;;;;;;;7.65;1.83;;;39.50;37.90;;;;;;4992348;28;20049;-86
2023/09/05 12:00:50;;;;;;;15.13;2.70;;;39.30;36.90;;;;;;5008589;28;20046;-87
2023/09/05 12:03:17;;;;;;;7.72;1.90;;;39.40;37.90;;;;;;5029928;28;20068;-86
2023/09/05 12:05:49;;;;;;;10.73;1.73;;;39.80;37.40;;;;;;4989691;28;20046;-86
2023/09/05 12:08:19;;;;;;;6.93;2.17;;;38.80;36.90;;;;;;5011928;28;20136;-86
2023/09/05 12:11:03;;;;;;;;;;;39.50;37.50;;;;;;5004517;28;20108;-86
2023/09/05 12:13:38;;;;;;;2.05;1.75;;;40.40;35.80;;;;;;4991974;28;19925;-88
2023/09/05 12:16:09;;;;;;;9.63;1.90;;;41.50;34.40;;;;;;5011149;28;20077;-87
2023/09/05 12:18:37;;;;;;;4.53;1.92;;;41.70;33.90;;;;;;4993813;28;20046;-89
2023/09/05 12:21:08;;;;;;;3.90;1.58;;;41.70;34.30;;;;;;4979702;28;20113;-90
2023/09/05 12:23:35;;;;;;;3.47;1.70;;;41.10;33.50;;;;;;4987847;28;20046;-90
2023/09/05 12:26:02;;;;;;;4.55;1.70;;;40.50;35.60;;;;;;4987452;28;20054;-90
2023/09/05 12:28:30;;;;;;;8.23;1.77;;;40.40;35.30;;;;;;4992116;28;20622;-90
2023/09/05 12:31:14;;;;;;;9.00;1.67;;;40.30;35.20;;;;;;4992819;28;20058;-90
2023/09/05 12:33:45;;;;;;;1.85;1.40;;;40.30;34.90;;;;;;4998476;28;20073;-89
2023/09/05 12:36:12;;;;;;;3.45;1.75;;;40.00;34.70;;;;;;4990611;28;20491;-90
2023/09/05 12:38:41;;;;;;;2.70;1.67;;;39.30;35.20;;;;;;4989731;28;20049;-89
2023/09/05 12:41:08;;;;;;;5.93;1.45;;;38.70;37.30;;;;;;4989996;28;20049;-88
2023/09/05 12:43:36;;;;;;;7.78;1.83;;;38.70;36.50;;;;;;4997047;28;20491;-89
2023/09/05 12:46:05;;;;;;;3.33;1.73;;;38.50;37.70;;;;;;4985397;28;20053;-89
2023/09/05 12:48:32;;;;;;;2.95;1.52;;;38.40;36.30;;;;;;4991112;28;20057;-89
2023/09/05 12:50:59;;;;;;;3.50;1.75;;;37.90;38.20;;;;;;5000958;28;20042;-90
2023/09/05 12:53:27;;;;;;;2.60;1.60;;;38.00;37.60;;;;;;4996685;28;20050;-89